Flight Track Log - Related Links

Times and Time Zones

All times are in EDT time to prevent confusion due to time zone crossing. See the SWA378 flight status page for this flight to view local times or setup timezone preferences in your user account.

Time Position Orientation Groundspeed Altitude Reporting Facility
EDT Latitude Longitude Course Direction KTS MPH feet Rate Location/Type
Fri 07:31:18 AM 39.1880 -76.7990 283° West 233 268 3,600  Level FlightAware ADS-B
Fri 07:31:37 AM 39.1930 -76.8260 283° West 243 280 4,300 1,946 Climbing FlightAware ADS-B
Fri 07:31:55 AM 39.1990 -76.8550 285° West 269 310 4,800 2,571 Climbing FlightAware ADS-B
Fri 07:32:19 AM 39.2050 -76.8900 282° West 269 310 6,100 3,447 Climbing FlightAware ADS-B
Fri 07:32:42 AM 39.2120 -76.9310 282° West 268 308 7,500 3,429 Climbing FlightAware ADS-B
Fri 07:33:01 AM 39.2140 -76.9610 275° West 273 314 8,500 2,850 Climbing FlightAware ADS-B
Fri 07:33:22 AM 39.2140 -76.9960 270° West 279 321 9,400 2,211 Climbing FlightAware ADS-B
Fri 07:33:58 AM 39.2140 -77.0580 270° West 306 352 10,600 1,500 Climbing FlightAware ADS-B
Fri 07:34:34 AM 39.2110 -77.1280 267° West 349 402 11,200 1,269 Climbing FlightAware ADS-B
Fri 07:34:50 AM 39.1990 -77.1590 243° Southwest 363 418 11,700 2,571 Climbing FlightAware ADS-B
Fri 07:35:02 AM 39.1840 -77.1790 226° Southwest 366 421 12,400 2,625 Climbing FlightAware ADS-B
Fri 07:35:38 AM 39.1330 -77.2230 214° Southwest 378 435 13,800 2,400 Climbing FlightAware ADS-B
Fri 07:36:12 AM 39.0830 -77.2660 214° Southwest 384 442 15,200 2,400 Climbing FlightAware ADS-B
Fri 07:36:48 AM 39.0300 -77.3110 213° Southwest 390 449 16,600 2,375 Climbing FlightAware ADS-B
Fri 07:37:00 AM 39.0140 -77.3310 224° Southwest 388 447 17,100 2,318 Climbing FlightAware ADS-B
Fri 07:37:32 AM 38.9880 -77.3950 242° Southwest 388 447 18,300 2,143 Climbing FlightAware ADS-B
Fri 07:38:10 AM 38.9720 -77.4820 257° West 393 452 19,600 1,833 Climbing FlightAware ADS-B
Fri 07:38:44 AM 38.9600 -77.5610 259° West 404 465 20,500 1,667 Climbing FlightAware ADS-B
Fri 07:39:22 AM 38.9450 -77.6510 258° West 411 473 21,600 1,622 Climbing FlightAware ADS-B
Fri 07:39:58 AM 38.9310 -77.7390 258° West 417 480 22,500 1,412 Climbing FlightAware ADS-B
Fri 07:40:30 AM 38.9190 -77.8140 258° West 423 487 23,200 1,324 Climbing FlightAware ADS-B
Fri 07:41:06 AM 38.9040 -77.9060 258° West 431 496 24,000 1,167 Climbing FlightAware ADS-B
Fri 07:41:42 AM 38.8890 -77.9960 258° West 439 505 24,600 1,167 Climbing FlightAware ADS-B
Fri 07:42:18 AM 38.8740 -78.0870 258° West 443 510 25,400 1,324 Climbing FlightAware ADS-B
Fri 07:42:50 AM 38.8600 -78.1700 258° West 444 511 26,100 1,235 Climbing FlightAware ADS-B
Fri 07:43:26 AM 38.8540 -78.2630 265° West 446 513 26,800 1,167 Climbing FlightAware ADS-B
Fri 07:44:02 AM 38.8530 -78.3580 269° West 451 519 27,500 1,184 Climbing FlightAware ADS-B
Fri 07:44:42 AM 38.8510 -78.4650 269° West 450 518 28,300 1,500 Climbing FlightAware ADS-B
Fri 07:45:14 AM 38.8500 -78.5520 269° West 441 507 29,300 1,676 Climbing FlightAware ADS-B
Fri 07:45:50 AM 38.8478 -78.6408 269° West 441 507 30,200 1,469 Climbing Washington Center
Fri 07:46:52 AM 38.8478 -78.7928 270° West 435 501 31,700 557 Climbing Washington Center
Fri 07:52:39 AM 38.8310 -79.6680 270° West 420 483 34,000 360 Climbing FlightAware ADS-B
Fri 07:53:15 AM 38.8290 -79.7570 268° West 416 479 34,000 529 Level FlightAware ADS-B
Fri 07:53:47 AM 38.8270 -79.8350 268° West 413 475 34,600 1,059 Climbing FlightAware ADS-B
Fri 07:54:23 AM 38.8250 -79.9210 268° West 410 472 35,200 986 Climbing FlightAware ADS-B
Fri 07:55:00 AM 38.8230 -80.0100 268° West 405 466 35,800 706 Climbing FlightAware ADS-B
Fri 07:55:31 AM 38.8210 -80.0850 268° West 402 463 36,000 179 Climbing FlightAware ADS-B
Fri 07:56:07 AM 38.8180 -80.1710 267° West 403 464 36,000  Level FlightAware ADS-B
Fri 07:56:43 AM 38.8160 -80.2570 268° West 403 464 36,000  Level FlightAware ADS-B
Fri 07:57:15 AM 38.8140 -80.3350 268° West 403 464 36,000  Level FlightAware ADS-B
Fri 07:57:49 AM 38.8120 -80.4140 268° West 403 464 36,000  Level FlightAware ADS-B
Fri 07:58:28 AM 38.8090 -80.5080 268° West 404 465 36,000  Level FlightAware ADS-B
Fri 07:59:03 AM 38.8070 -80.5930 268° West 405 466 36,000  Level FlightAware ADS-B
Fri 07:59:37 AM 38.8040 -80.6730 267° West 405 466 36,000  Level FlightAware ADS-B
Fri 08:00:13 AM 38.8010 -80.7570 267° West 406 467 36,000  Level FlightAware ADS-B
Fri 08:00:45 AM 38.7990 -80.8370 268° West 407 468 36,000  Level FlightAware ADS-B
Fri 08:01:25 AM 38.7960 -80.9330 268° West 409 471 36,000  Level FlightAware ADS-B
Fri 08:01:57 AM 38.7930 -81.0110 267° West 410 472 36,000  Level FlightAware ADS-B
Fri 08:02:34 AM 38.7900 -81.1020 268° West 411 473 36,000  Level FlightAware ADS-B
Fri 08:03:10 AM 38.7870 -81.1880 267° West 411 473 36,000  Level FlightAware ADS-B
Fri 08:03:46 AM 38.7840 -81.2740 267° West 412 474 36,000  Level FlightAware ADS-B
Fri 08:04:17 AM 38.7810 -81.3470 267° West 412 474 36,000  Level FlightAware ADS-B
Fri 08:04:53 AM 38.7780 -81.4400 268° West 412 474 36,000  Level FlightAware ADS-B
Fri 08:05:29 AM 38.7740 -81.5260 267° West 412 474 36,000  Level FlightAware ADS-B
Fri 08:06:05 AM 38.7710 -81.6110 267° West 412 474 36,000  Level FlightAware ADS-B
Fri 08:06:40 AM 38.7680 -81.7010 268° West 413 475 36,000  Level FlightAware ADS-B
Fri 08:07:12 AM 38.7640 -81.7770 266° West 412 474 36,000  Level FlightAware ADS-B
Fri 08:07:48 AM 38.7610 -81.8660 268° West 412 474 36,000  Level FlightAware ADS-B
Fri 08:08:25 AM 38.7570 -81.9520 267° West 411 473 36,000  Level FlightAware ADS-B
Fri 08:08:57 AM 38.7540 -82.0320 267° West 412 474 36,000  Level FlightAware ADS-B
Fri 08:09:31 AM 38.7550 -82.1150 271° West 412 474 36,000  Level FlightAware ADS-B
Fri 08:10:07 AM 38.7560 -82.2030 271° West 412 474 36,000  Level FlightAware ADS-B
Fri 08:10:43 AM 38.7580 -82.2900 272° West 413 475 36,000  Level FlightAware ADS-B
Fri 08:11:15 AM 38.7590 -82.3700 271° West 414 476 36,000  Level FlightAware ADS-B
Fri 08:11:51 AM 38.7590 -82.4580 270° West 415 478 36,000  Level FlightAware ADS-B
Fri 08:12:28 AM 38.7600 -82.5450 271° West 415 478 36,000  Level FlightAware ADS-B
Fri 08:13:04 AM 38.7610 -82.6360 271° West 417 480 36,000  Level FlightAware ADS-B
Fri 08:13:36 AM 38.7620 -82.7140 271° West 417 480 36,000  Level FlightAware ADS-B
Fri 08:14:16 AM 38.7630 -82.8140 271° West 418 481 36,000  Level FlightAware ADS-B
Fri 08:14:46 AM 38.7630 -82.8870 270° West 419 482 36,000  Level FlightAware ADS-B
Fri 08:15:22 AM 38.7640 -82.9760 271° West 418 481 36,000  Level FlightAware ADS-B
Fri 08:15:56 AM 38.7650 -83.0570 271° West 418 481 36,000  Level FlightAware ADS-B
Fri 08:16:30 AM 38.7650 -83.1440 270° West 418 481 36,000  Level FlightAware ADS-B
Fri 08:17:10 AM 38.7650 -83.2420 270° West 418 481 36,000  Level FlightAware ADS-B
Fri 08:17:40 AM 38.7660 -83.3130 271° West 417 480 36,000  Level FlightAware ADS-B
Fri 08:18:20 AM 38.7660 -83.4150 270° West 417 480 36,000  Level FlightAware ADS-B
Fri 08:18:55 AM 38.7660 -83.5010 270° West 417 480 36,000  Level FlightAware ADS-B
Fri 08:19:30 AM 38.7660 -83.5870 270° West 417 480 36,000  Level FlightAware ADS-B
Fri 08:20:06 AM 38.7670 -83.6780 271° West 418 481 36,000  Level FlightAware ADS-B
Fri 08:20:36 AM 38.7670 -83.7510 270° West 419 482 36,000  Level FlightAware ADS-B
Fri 08:21:16 AM 38.7660 -83.8510 269° West 421 484 36,000  Level FlightAware ADS-B
Fri 08:21:58 AM 38.7660 -83.9540 270° West 422 486 36,000  Level FlightAware ADS-B
Fri 08:22:29 AM 38.7660 -84.0310 270° West 423 487 36,000  Level FlightAware ADS-B
Fri 08:23:06 AM 38.7660 -84.1250 270° West 424 488 36,000  Level FlightAware ADS-B
Fri 08:23:42 AM 38.7660 -84.2160 270° West 425 489 36,000  Level FlightAware ADS-B
Fri 08:24:22 AM 38.7650 -84.3160 269° West 424 488 36,000  Level FlightAware ADS-B
Fri 08:24:58 AM 38.7650 -84.4050 270° West 424 488 36,000  Level FlightAware ADS-B
Fri 08:25:34 AM 38.7640 -84.4960 269° West 423 487 36,000  Level FlightAware ADS-B
Fri 08:26:06 AM 38.7630 -84.5770 269° West 423 487 36,000  Level FlightAware ADS-B
Fri 08:26:38 AM 38.7630 -84.6550 270° West 423 487 36,000  Level FlightAware ADS-B
Fri 08:27:18 AM 38.7620 -84.7570 269° West 423 487 36,000  Level FlightAware ADS-B
Fri 08:27:54 AM 38.7610 -84.8450 269° West 423 487 36,000  Level FlightAware ADS-B
Fri 08:28:24 AM 38.7610 -84.9210 270° West 424 488 36,000  Level FlightAware ADS-B
Fri 08:29:02 AM 38.7600 -85.0160 269° West 424 488 36,000  Level FlightAware ADS-B
Fri 08:29:38 AM 38.7590 -85.1070 269° West 423 487 36,000  Level FlightAware ADS-B
Fri 08:30:14 AM 38.7570 -85.1960 268° West 423 487 36,000  Level FlightAware ADS-B
Fri 08:30:47 AM 38.7560 -85.2790 269° West 423 487 36,000  Level FlightAware ADS-B
Fri 08:31:23 AM 38.7550 -85.3680 269° West 424 488 36,000  Level FlightAware ADS-B
Fri 08:31:58 AM 38.7540 -85.4550 269° West 425 489 36,000  Level FlightAware ADS-B
Fri 08:32:34 AM 38.7530 -85.5440 269° West 425 489 36,000  Level FlightAware ADS-B
Fri 08:33:06 AM 38.7510 -85.6280 268° West 426 490 36,000  Level FlightAware ADS-B
Fri 08:33:43 AM 38.7500 -85.7190 269° West 426 490 36,000  Level FlightAware ADS-B
Fri 08:34:18 AM 38.7480 -85.8090 268° West 428 493 36,000  Level FlightAware ADS-B
Fri 08:34:50 AM 38.7470 -85.8890 269° West 429 494 36,000  Level FlightAware ADS-B
Fri 08:35:29 AM 38.7450 -85.9810 268° West 431 496 36,000  Level FlightAware ADS-B
Fri 08:36:03 AM 38.7430 -86.0740 268° West 432 497 36,000  Level FlightAware ADS-B
Fri 08:36:37 AM 38.7420 -86.1620 269° West 433 498 36,000  Level FlightAware ADS-B
Fri 08:37:12 AM 38.7400 -86.2450 268° West 434 499 36,000  Level FlightAware ADS-B
Fri 08:37:56 AM 38.7370 -86.3610 268° West 434 499 36,000  Level FlightAware ADS-B
Fri 08:38:36 AM 38.7350 -86.4680 269° West 434 499 36,000  Level FlightAware ADS-B
Fri 08:39:14 AM 38.7320 -86.5640 268° West 433 498 36,000  Level FlightAware ADS-B
Fri 08:39:46 AM 38.7300 -86.6450 268° West 432 497 36,000  Level FlightAware ADS-B
Fri 08:40:22 AM 38.7280 -86.7380 268° West 432 497 36,000  Level FlightAware ADS-B
Fri 08:40:56 AM 38.7260 -86.8250 268° West 432 497 36,000  Level FlightAware ADS-B
Fri 08:41:34 AM 38.7230 -86.9200 268° West 432 497 36,000  Level FlightAware ADS-B
Fri 08:42:06 AM 38.7210 -87.0030 268° West 432 497 36,000  Level FlightAware ADS-B
Fri 08:42:42 AM 38.7180 -87.0960 268° West 433 498 36,000  Level FlightAware ADS-B
Fri 08:43:18 AM 38.7160 -87.1870 268° West 433 498 36,000  Level FlightAware ADS-B
Fri 08:43:54 AM 38.7130 -87.2780 268° West 434 499 36,000  Level FlightAware ADS-B
Fri 08:44:28 AM 38.7100 -87.3650 267° West 435 501 36,000  Level FlightAware ADS-B
Fri 08:45:03 AM 38.7080 -87.4570 268° West 435 501 36,000  Level FlightAware ADS-B
Fri 08:45:37 AM 38.7050 -87.5450 268° West 435 501 36,000  Level FlightAware ADS-B
Fri 08:46:13 AM 38.7020 -87.6360 268° West 435 501 36,000  Level FlightAware ADS-B
Fri 08:46:50 AM 38.6980 -87.7310 267° West 436 502 36,000  Level FlightAware ADS-B
Fri 08:47:22 AM 38.6960 -87.8120 268° West 436 502 36,000  Level FlightAware ADS-B
Fri 08:47:58 AM 38.6920 -87.9040 267° West 438 504 36,000  Level FlightAware ADS-B
Fri 08:48:32 AM 38.6910 -87.9940 269° West 438 504 36,000  Level FlightAware ADS-B
Fri 08:49:08 AM 38.6910 -88.0870 270° West 439 505 36,000  Level FlightAware ADS-B
Fri 08:49:40 AM 38.6910 -88.1700 270° West 439 505 36,000  Level FlightAware ADS-B
Fri 08:50:24 AM 38.6910 -88.2780 270° West 439 505 36,000  Level FlightAware ADS-B
Fri 08:50:56 AM 38.6910 -88.3670 270° West 439 505 36,000  Level FlightAware ADS-B
Fri 08:51:36 AM 38.6900 -88.4670 269° West 438 504 36,000  Level FlightAware ADS-B
Fri 08:52:08 AM 38.6900 -88.5530 270° West 439 505 36,000  Level FlightAware ADS-B
Fri 08:52:46 AM 38.6900 -88.6520 270° West 440 506 36,000  Level FlightAware ADS-B
Fri 08:53:22 AM 38.6890 -88.7440 269° West 440 506 36,000  Level FlightAware ADS-B
Fri 08:53:53 AM 38.6890 -88.8260 270° West 439 505 36,000  Level FlightAware ADS-B
Fri 08:54:26 AM 38.6890 -88.9100 270° West 439 505 36,000  Level FlightAware ADS-B
Fri 08:55:00 AM 38.6880 -89.0000 269° West 440 506 36,000  Level FlightAware ADS-B
Fri 08:55:42 AM 38.6870 -89.1090 269° West 440 506 36,000  Level FlightAware ADS-B
Fri 08:56:12 AM 38.6860 -89.1860 269° West 439 505 36,000  Level FlightAware ADS-B
Fri 08:56:50 AM 38.6860 -89.2840 270° West 438 504 36,000  Level FlightAware ADS-B
Fri 08:57:26 AM 38.6850 -89.3770 269° West 439 505 36,000  Level FlightAware ADS-B
Fri 08:57:58 AM 38.6840 -89.4600 269° West 438 504 36,000  Level FlightAware ADS-B
Fri 08:58:30 AM 38.6830 -89.5440 269° West 436 502 36,000  Level FlightAware ADS-B
Fri 08:59:08 AM 38.6820 -89.6370 269° West 435 501 36,000  Level FlightAware ADS-B
Fri 08:59:38 AM 38.6810 -89.7180 269° West 434 499 36,000  Level FlightAware ADS-B
Fri 09:00:12 AM 38.6790 -89.8050 268° West 433 498 36,000  Level FlightAware ADS-B
Fri 09:00:47 AM 38.6780 -89.8920 269° West 436 502 36,000  Level FlightAware ADS-B
Fri 09:01:21 AM 38.6770 -89.9760 269° West 438 504 36,000  Level FlightAware ADS-B
Fri 09:01:53 AM 38.6750 -90.0650 268° West 437 503 36,000  Level FlightAware ADS-B
Fri 09:02:31 AM 38.6740 -90.1590 269° West 437 503 36,000  Level FlightAware ADS-B
Fri 09:03:08 AM 38.6720 -90.2600 269° West 436 502 36,000  Level FlightAware ADS-B
Fri 09:03:41 AM 38.6710 -90.3380 269° West 435 501 36,000  Level FlightAware ADS-B
Fri 09:04:15 AM 38.6690 -90.4270 268° West 433 498 36,000  Level FlightAware ADS-B
Fri 09:05:01 AM 38.6670 -90.5430 269° West 432 497 36,000  Level FlightAware ADS-B
Fri 09:05:33 AM 38.6650 -90.6290 268° West 431 496 36,000  Level FlightAware ADS-B
Fri 09:06:09 AM 38.6630 -90.7170 268° West 430 495 36,000  Level FlightAware ADS-B
Fri 09:06:45 AM 38.6610 -90.8120 268° West 429 494 36,000  Level FlightAware ADS-B
Fri 09:07:17 AM 38.6590 -90.8900 268° West 429 494 36,000  Level FlightAware ADS-B
Fri 09:08:10 AM 38.6560 -91.0130 268° West 429 494 36,000  Level FlightAware ADS-B
Fri 09:08:41 AM 38.6540 -91.1030 268° West 430 495 36,000  Level FlightAware ADS-B
Fri 09:09:23 AM 38.6510 -91.1990 268° West 430 495 36,000  Level FlightAware ADS-B
Fri 09:09:59 AM 38.6490 -91.2770 268° West 430 495 36,000  Level FlightAware ADS-B
Fri 09:10:35 AM 38.6470 -91.3780 269° West 432 497 36,000  Level FlightAware ADS-B
Fri 09:11:28 AM 38.6420 -91.5190 267° West 434 499 36,000  Level FlightAware ADS-B
Fri 09:12:04 AM 38.6390 -91.5970 267° West 434 499 36,000  Level FlightAware ADS-B
Fri 09:12:36 AM 38.6370 -91.7040 269° West 435 501 36,000  Level FlightAware ADS-B
Fri 09:13:15 AM 38.6340 -91.8070 268° West 436 502 36,000  Level FlightAware ADS-B
Fri 09:14:10 AM 38.6300 -91.9290 268° West 436 502 36,000  Level FlightAware ADS-B
Fri 09:14:46 AM 38.6260 -92.0080 266° West 436 502 36,000  Level FlightAware ADS-B
Fri 09:15:23 AM 38.6230 -92.0890 267° West 436 502 36,000  Level FlightAware ADS-B
Fri 09:15:59 AM 38.6200 -92.1680 267° West 436 502 36,000  Level FlightAware ADS-B
Fri 09:16:33 AM 38.6170 -92.3150 269° West 438 504 36,000  Level FlightAware ADS-B
Fri 09:17:16 AM 38.6130 -92.4090 267° West 438 504 36,000  Level FlightAware ADS-B
Fri 09:17:55 AM 38.6100 -92.5250 268° West 440 506 36,000  Level FlightAware ADS-B
Fri 09:18:27 AM 38.6060 -92.6090 267° West 441 507 36,000  Level FlightAware ADS-B
Fri 09:19:07 AM 38.6020 -92.7150 267° West 442 509 36,000  Level FlightAware ADS-B
Fri 09:19:33 AM 38.6000 -92.7800 268° West 442 509 36,000  Level FlightAware ADS-B
Fri 09:20:15 AM 38.5950 -92.8900 267° West 443 510 36,000  Level FlightAware ADS-B
Fri 09:20:49 AM 38.5920 -92.9790 268° West 444 511 36,000  Level FlightAware ADS-B
Fri 09:21:27 AM 38.5880 -93.0810 267° West 445 512 36,000  Level FlightAware ADS-B
Fri 09:22:01 AM 38.5840 -93.1670 267° West 446 513 36,000  Level FlightAware ADS-B
Fri 09:22:39 AM 38.5800 -93.2650 267° West 448 516 36,000  Level FlightAware ADS-B
Fri 09:23:07 AM 38.5770 -93.3410 267° West 448 516 36,000  Level FlightAware ADS-B
Fri 09:23:43 AM 38.5720 -93.4410 266° West 449 517 36,000  Level FlightAware ADS-B
Fri 09:24:15 AM 38.5680 -93.5200 266° West 449 517 36,000  Level FlightAware ADS-B
Fri 09:24:50 AM 38.5640 -93.6160 267° West 448 516 36,000  Level FlightAware ADS-B
Fri 09:25:26 AM 38.5590 -93.7100 266° West 447 514 36,000  Level FlightAware ADS-B
Fri 09:26:02 AM 38.5550 -93.8060 267° West 447 514 36,000  Level FlightAware ADS-B
Fri 09:26:34 AM 38.5510 -93.8920 267° West 447 514 36,000  Level FlightAware ADS-B
Fri 09:27:12 AM 38.5460 -93.9900 266° West 446 513 36,000  Level FlightAware ADS-B
Fri 09:27:48 AM 38.5410 -94.0840 266° West 445 512 36,000  Level FlightAware ADS-B
Fri 09:28:20 AM 38.5370 -94.1650 266° West 445 512 36,000  Level FlightAware ADS-B
Fri 09:28:56 AM 38.5320 -94.2620 266° West 444 511 36,000  Level FlightAware ADS-B
Fri 09:29:32 AM 38.5270 -94.3570 266° West 443 510 36,000  Level FlightAware ADS-B
Fri 09:30:08 AM 38.5220 -94.4480 266° West 442 509 36,000  Level FlightAware ADS-B
Fri 09:30:40 AM 38.5160 -94.5340 265° West 440 506 36,000  Level FlightAware ADS-B
Fri 09:31:16 AM 38.5100 -94.6250 265° West 439 505 36,000  Level FlightAware ADS-B
Fri 09:31:52 AM 38.5030 -94.7190 265° West 438 504 36,000  Level FlightAware ADS-B
Fri 09:32:28 AM 38.4970 -94.8080 265° West 438 504 36,000  Level FlightAware ADS-B
Fri 09:33:00 AM 38.4910 -94.8940 265° West 438 504 36,000  Level FlightAware ADS-B
Fri 09:33:36 AM 38.4840 -94.9870 265° West 439 505 36,000  Level FlightAware ADS-B
Fri 09:34:04 AM 38.4790 -95.0580 265° West 442 509 36,000  Level FlightAware ADS-B
Fri 09:34:47 AM 38.4710 -95.1680 265° West 444 511 36,000  Level FlightAware ADS-B
Fri 09:35:19 AM 38.4650 -95.2500 265° West 445 512 36,000  Level FlightAware ADS-B
Fri 09:35:56 AM 38.4580 -95.3470 265° West 446 513 36,000  Level FlightAware ADS-B
Fri 09:36:32 AM 38.4510 -95.4430 265° West 446 513 36,000  Level FlightAware ADS-B
Fri 09:37:08 AM 38.4440 -95.5400 265° West 446 513 36,000  Level FlightAware ADS-B
Fri 09:37:41 AM 38.4370 -95.6230 264° West 446 513 36,000  Level FlightAware ADS-B
Fri 09:38:12 AM 38.4310 -95.7040 265° West 445 512 36,000  Level FlightAware ADS-B
Fri 09:38:52 AM 38.4230 -95.8100 265° West 444 511 36,000  Level FlightAware ADS-B
Fri 09:39:26 AM 38.4160 -95.8970 264° West 444 511 36,000  Level FlightAware ADS-B
Fri 09:40:00 AM 38.4090 -95.9870 264° West 444 511 36,000  Level FlightAware ADS-B
Fri 09:40:36 AM 38.4010 -96.0800 264° West 444 511 36,000  Level FlightAware ADS-B
Fri 09:41:13 AM 38.3940 -96.1740 265° West 445 512 36,000  Level FlightAware ADS-B
Fri 09:41:36 AM 38.3890 -96.2340 264° West 445 512 36,000  Level FlightAware ADS-B
Fri 09:42:10 AM 38.3810 -96.3230 263° West 444 511 36,000  Level FlightAware ADS-B
Fri 09:42:50 AM 38.3730 -96.4280 264° West 445 512 36,000  Level FlightAware ADS-B
Fri 09:43:23 AM 38.3650 -96.5140 263° West 445 512 36,000  Level FlightAware ADS-B
Fri 09:44:00 AM 38.3570 -96.6100 264° West 445 512 36,000  Level FlightAware ADS-B
Fri 09:44:32 AM 38.3500 -96.6950 264° West 447 514 36,000  Level FlightAware ADS-B
Fri 09:45:08 AM 38.3420 -96.7880 264° West 449 517 36,000  Level FlightAware ADS-B
Fri 09:45:44 AM 38.3340 -96.8830 264° West 451 519 36,000  Level FlightAware ADS-B
Fri 09:46:21 AM 38.3250 -96.9790 263° West 452 520 36,000  Level FlightAware ADS-B
Fri 09:46:44 AM 38.3200 -97.0420 264° West 453 521 36,000  Level FlightAware ADS-B
Fri 09:47:20 AM 38.3110 -97.1380 263° West 453 521 36,000  Level FlightAware ADS-B
Fri 09:47:57 AM 38.3020 -97.2340 263° West 454 522 36,000  Level FlightAware ADS-B
Fri 09:48:32 AM 38.2940 -97.3280 264° West 455 524 36,000  Level FlightAware ADS-B
Fri 09:49:07 AM 38.2850 -97.4200 263° West 455 524 36,000  Level FlightAware ADS-B
Fri 09:49:42 AM 38.2770 -97.5130 264° West 455 524 36,000  Level FlightAware ADS-B
Fri 09:50:19 AM 38.2670 -97.6090 262° West 456 525 36,000  Level FlightAware ADS-B
Fri 09:50:51 AM 38.2590 -97.6970 263° West 456 525 36,000  Level FlightAware ADS-B
Fri 09:51:27 AM 38.2500 -97.7920 263° West 456 525 36,000  Level FlightAware ADS-B
Fri 09:52:03 AM 38.2410 -97.8880 263° West 457 526 36,000  Level FlightAware ADS-B
Fri 09:52:37 AM 38.2320 -97.9810 263° West 458 527 36,000  Level FlightAware ADS-B
Fri 09:53:13 AM 38.2230 -98.0750 263° West 458 527 36,000  Level FlightAware ADS-B
Fri 09:53:45 AM 38.2140 -98.1600 262° West 458 527 36,000  Level FlightAware ADS-B
Fri 09:54:17 AM 38.2060 -98.2420 263° West 457 526 36,000  Level FlightAware ADS-B
Fri 09:54:54 AM 38.1960 -98.3410 263° West 456 525 36,000 81 Level FlightAware ADS-B
Fri 09:55:31 AM 38.1860 -98.4430 263° West 459 528 36,100 658 Climbing FlightAware ADS-B
Fri 09:56:07 AM 38.1760 -98.5400 263° West 453 521 36,800 1,130 Climbing FlightAware ADS-B
Fri 09:56:40 AM 38.1670 -98.6240 262° West 448 516 37,400 1,029 Climbing FlightAware ADS-B
Fri 09:57:17 AM 38.1570 -98.7200 262° West 444 511 38,000 522 Climbing FlightAware ADS-B
Fri 09:57:49 AM 38.1490 -98.8030 263° West 447 514 38,000  Level FlightAware ADS-B
Fri 09:58:29 AM 38.1380 -98.9070 262° West 447 514 38,000  Level FlightAware ADS-B
Fri 09:59:01 AM 38.1290 -98.9910 262° West 449 517 38,000  Level FlightAware ADS-B
Fri 09:59:35 AM 38.1190 -99.0810 262° West 449 517 38,000  Level FlightAware ADS-B
Fri 10:00:06 AM 38.1110 -99.1600 263° West 449 517 38,000  Level FlightAware ADS-B
Fri 10:00:46 AM 38.1010 -99.2490 262° West 449 517 38,000  Level FlightAware ADS-B
Fri 10:01:22 AM 38.0920 -99.3290 262° West 449 517 38,000  Level FlightAware ADS-B
Fri 10:02:10 AM 38.0760 -99.4750 262° West 451 519 38,000  Level FlightAware ADS-B
Fri 10:02:46 AM 38.0660 -99.5550 261° West 451 519 38,000  Level FlightAware ADS-B
Fri 10:03:22 AM 38.0560 -99.6350 261° West 451 519 38,000  Level FlightAware ADS-B
Fri 10:03:58 AM 38.0460 -99.7150 261° West 451 519 38,000  Level FlightAware ADS-B
Fri 10:04:35 AM 38.0350 -99.7970 260° West 451 519 38,000  Level FlightAware ADS-B
Fri 10:05:12 AM 38.0250 -99.8790 261° West 451 519 38,000  Level FlightAware ADS-B
Fri 10:05:48 AM 38.0150 -99.9590 261° West 451 519 38,000  Level FlightAware ADS-B
Fri 10:06:26 AM 38.0050 -100.0440 262° West 451 519 38,000  Level FlightAware ADS-B
Fri 10:07:02 AM 37.9950 -100.1240 261° West 451 519 38,000  Level FlightAware ADS-B
Fri 10:07:48 AM 37.9820 -100.2260 261° West 451 519 38,000  Level FlightAware ADS-B
Fri 10:08:24 AM 37.9720 -100.3060 261° West 451 519 38,000  Level FlightAware ADS-B
Fri 10:08:58 AM 37.9620 -100.3820 261° West 451 519 38,000  Level FlightAware ADS-B
Fri 10:09:35 AM 37.9520 -100.4640 261° West 451 519 38,000  Level FlightAware ADS-B
Fri 10:10:11 AM 37.9420 -100.5440 261° West 451 519 38,000  Level FlightAware ADS-B
Fri 10:10:49 AM 37.9320 -100.6280 261° West 451 519 38,000  Level FlightAware ADS-B
Fri 10:11:26 AM 37.9210 -100.7110 260° West 451 519 38,000  Level FlightAware ADS-B
Fri 10:12:09 AM 37.8950 -101.0250 260° West 456 525 38,000  Level Kansas City Center
Fri 10:13:10 AM 37.8719 -101.2014 261° West 459 528 38,000  Level Kansas City Center
Fri 10:14:11 AM 37.8525 -101.3536 261° West 460 529 38,000  Level Kansas City Center
Fri 10:15:15 AM 37.8294 -101.5333 261° West 463 533 38,000  Level Kansas City Center
Fri 10:16:15 AM 37.8103 -101.6878 261° West 465 535 38,000  Level Kansas City Center
Fri 10:17:19 AM 37.7861 -101.8683 260° West 467 537 38,000  Level Kansas City Center
Fri 10:18:19 AM 37.7656 -102.0217 260° West 465 535 38,000  Level Kansas City Center
Fri 10:19:21 AM 37.7422 -102.2003 261° West 463 533 38,000  Level Kansas City Center
Fri 10:19:54 AM 37.7319 -102.2761 260° West 463 533 38,000  Level Denver Center
Fri 10:20:55 AM 37.7072 -102.4533 260° West 461 531 38,000  Level Denver Center
Fri 10:21:57 AM 37.6867 -102.6053 260° West 461 531 38,000  Level Denver Center
Fri 10:22:59 AM 37.6622 -102.7819 260° West 459 528 38,000  Level Denver Center
Fri 10:24:01 AM 37.6408 -102.9350 260° West 461 531 38,000  Level Denver Center
Fri 10:25:02 AM 37.6194 -103.0864 260° West 460 529 38,000  Level Denver Center
Fri 10:26:04 AM 37.5944 -103.2636 260° West 460 529 38,000  Level Denver Center
Fri 10:27:06 AM 37.5725 -103.4150 260° West 460 529 38,000  Level Denver Center
Fri 10:28:08 AM 37.5467 -103.5911 260° West 458 527 38,000  Level Denver Center
Fri 10:29:10 AM 37.5239 -103.7419 259° West 458 527 38,000  Level Denver Center
Fri 10:30:11 AM 37.4961 -103.9183 259° West 457 526 38,000  Level Denver Center
Fri 10:31:13 AM 37.4714 -104.0806 259° West 470 541 38,000  Level Denver Center
Fri 10:32:15 AM 37.4492 -104.2342 260° West 464 534 38,000  Level Denver Center
Fri 10:33:17 AM 37.4225 -104.4114 259° West 460 529 38,000  Level Denver Center
Fri 10:34:19 AM 37.3989 -104.5653 259° West 466 536 38,000  Level Denver Center
Fri 10:35:21 AM 37.3708 -104.7461 259° West 471 542 38,000  Level Denver Center
Fri 10:36:23 AM 37.3469 -104.9000 259° West 470 541 38,000  Level Denver Center
Fri 10:37:26 AM 37.3219 -105.0531 258° West 467 537 38,000  Level Denver Center
Fri 10:38:28 AM 37.2919 -105.2392 259° West 474 545 38,000  Level Denver Center
Fri 10:39:30 AM 37.2683 -105.3892 259° West 471 542 38,000  Level Denver Center
Fri 10:40:32 AM 37.2378 -105.5703 258° West 474 545 38,000  Level Denver Center
Fri 10:41:34 AM 37.2117 -105.7236 258° West 471 542 38,000  Level Denver Center
Fri 10:42:36 AM 37.1797 -105.9067 258° West 471 542 38,000  Level Denver Center
Fri 10:43:38 AM 37.1561 -106.0603 259° West 470 541 38,000  Level Denver Center
Fri 10:44:40 AM 37.1250 -106.2406 258° West 473 544 38,000  Level Denver Center
Fri 10:45:42 AM 37.0983 -106.3933 258° West 470 541 38,000  Level Denver Center
Fri 10:46:44 AM 37.0681 -106.5722 258° West 469 540 38,000  Level Denver Center
Fri 10:47:46 AM 37.0406 -106.7242 257° West 469 540 38,000  Level Denver Center
Fri 10:48:48 AM 37.0139 -106.8764 258° West 469 540 38,000  Level Denver Center
Fri 10:49:50 AM 36.9825 -107.0531 258° West 467 537 38,000  Level Denver Center
Fri 10:50:52 AM 36.9553 -107.2050 257° West 467 537 38,000  Level Denver Center
Fri 10:51:54 AM 36.9236 -107.3797 257° West 464 534 38,000  Level Denver Center
Fri 10:52:56 AM 36.8967 -107.5286 257° West 461 531 38,000  Level Denver Center
Fri 10:53:58 AM 36.8656 -107.7000 257° West 455 524 38,000  Level Denver Center
Fri 10:55:00 AM 36.8378 -107.8467 257° West 455 524 38,000  Level Denver Center
Fri 10:56:03 AM 36.8064 -108.0161 257° West 450 518 38,000  Level Denver Center
Fri 10:57:05 AM 36.7786 -108.1611 257° West 449 517 38,000  Level Denver Center
Fri 10:58:07 AM 36.7483 -108.3275 257° West 445 512 38,000  Level Denver Center
Fri 10:59:09 AM 36.7219 -108.4689 257° West 441 507 38,000  Level Denver Center
Fri 11:00:11 AM 36.6892 -108.6342 256° West 441 507 38,000  Level Denver Center
Fri 11:01:13 AM 36.6608 -108.7786 256° West 447 514 38,000  Level Denver Center
Fri 11:02:15 AM 36.6275 -108.9439 256° West 444 511 38,000  Level Denver Center
Fri 11:03:17 AM 36.5997 -109.0869 256° West 446 513 38,000  Level Denver Center
Fri 11:08:31 AM 36.4390 -109.8860 256° West 442 509 38,000  Level FlightAware ADS-B
Fri 11:09:01 AM 36.4240 -109.9590 256° West 442 509 38,000 -568 Level FlightAware ADS-B
Fri 11:09:45 AM 36.4020 -110.0660 256° West 449 517 37,300 -975 Descending FlightAware ADS-B
Fri 11:10:21 AM 36.3830 -110.1540 255° West 454 522 36,700 -1,000 Descending FlightAware ADS-B
Fri 11:10:57 AM 36.3650 -110.2460 256° West 457 526 36,100 -1,000 Descending FlightAware ADS-B
Fri 11:11:33 AM 36.3450 -110.3400 255° West 454 522 35,500 -947 Descending FlightAware ADS-B
Fri 11:12:13 AM 36.3240 -110.4400 255° West 446 513 34,900 -973 Descending FlightAware ADS-B
Fri 11:12:47 AM 36.3070 -110.5220 256° West 440 506 34,300 -943 Descending FlightAware ADS-B
Fri 11:13:23 AM 36.2880 -110.6110 255° West 439 505 33,800 -1,000 Descending FlightAware ADS-B
Fri 11:13:59 AM 36.2690 -110.6970 255° West 431 496 33,100 -1,083 Descending FlightAware ADS-B
Fri 11:14:35 AM 36.2510 -110.7830 255° West 426 490 32,500 -971 Descending FlightAware ADS-B
Fri 11:15:07 AM 36.2350 -110.8580 255° West 428 493 32,000 -971 Descending FlightAware ADS-B
Fri 11:15:43 AM 36.2170 -110.9440 255° West 422 486 31,400 -1,029 Descending FlightAware ADS-B
Fri 11:16:17 AM 36.2000 -111.0200 255° West 421 484 30,800 -1,059 Descending FlightAware ADS-B
Fri 11:16:51 AM 36.1830 -111.1010 255° West 416 479 30,200 -667 Descending FlightAware ADS-B
Fri 11:17:29 AM 36.1640 -111.1860 255° West 415 478 30,000 -167 Descending FlightAware ADS-B
Fri 11:18:03 AM 36.1470 -111.2660 255° West 422 486 30,000  Level FlightAware ADS-B
Fri 11:18:37 AM 36.1290 -111.3460 254° West 430 495 30,000  Level FlightAware ADS-B
Fri 11:19:13 AM 36.1110 -111.4300 255° West 429 494 30,000  Level FlightAware ADS-B
Fri 11:19:48 AM 36.0930 -111.5130 255° West 428 493 30,000  Level FlightAware ADS-B
Fri 11:20:25 AM 36.0730 -111.6010 254° West 427 491 30,000  Level FlightAware ADS-B
Fri 11:21:01 AM 36.0540 -111.6860 255° West 427 491 30,000  Level FlightAware ADS-B
Fri 11:21:33 AM 36.0370 -111.7620 255° West 428 493 30,000  Level FlightAware ADS-B
Fri 11:22:07 AM 36.0190 -111.8420 254° West 430 495 30,000  Level FlightAware ADS-B
Fri 11:22:45 AM 35.9990 -111.9320 255° West 429 494 30,000 -81 Level FlightAware ADS-B
Fri 11:23:21 AM 35.9800 -112.0160 254° West 425 489 29,900 -618 Descending FlightAware ADS-B
Fri 11:23:53 AM 35.9640 -112.0900 255° West 418 481 29,300 -1,029 Descending FlightAware ADS-B
Fri 11:24:31 AM 35.9440 -112.1770 254° West 408 470 28,700 -1,029 Descending FlightAware ADS-B
Fri 11:25:03 AM 35.9280 -112.2480 254° West 402 463 28,100 -1,031 Descending FlightAware ADS-B
Fri 11:25:35 AM 35.9120 -112.3170 254° West 400 460 27,600 -1,000 Descending FlightAware ADS-B
Fri 11:26:09 AM 35.8950 -112.3930 255° West 396 456 27,000 -1,054 Descending FlightAware ADS-B
Fri 11:26:49 AM 35.8750 -112.4780 254° West 385 443 26,300 -973 Descending FlightAware ADS-B
Fri 11:27:23 AM 35.8590 -112.5480 254° West 383 441 25,800 -971 Descending FlightAware ADS-B
Fri 11:27:57 AM 35.8430 -112.6200 255° West 380 437 25,200 -1,014 Descending FlightAware ADS-B
Fri 11:28:34 AM 35.8250 -112.6960 254° West 373 429 24,600 -1,029 Descending FlightAware ADS-B
Fri 11:29:07 AM 35.8090 -112.7650 254° West 369 425 24,000 -1,043 Descending FlightAware ADS-B
Fri 11:29:43 AM 35.7930 -112.8350 254° West 364 419 23,400 -1,000 Descending FlightAware ADS-B
Fri 11:30:19 AM 35.7760 -112.9070 254° West 360 414 22,800 -971 Descending FlightAware ADS-B
Fri 11:30:51 AM 35.7620 -112.9680 254° West 350 403 22,300 -985 Descending FlightAware ADS-B
Fri 11:31:26 AM 35.7460 -113.0340 253° West 342 394 21,700 -1,000 Descending FlightAware ADS-B
Fri 11:32:03 AM 35.7300 -113.1030 254° West 341 392 21,100 -986 Descending FlightAware ADS-B
Fri 11:32:39 AM 35.7140 -113.1700 254° West 338 389 20,500 -904 Descending FlightAware ADS-B
Fri 11:33:16 AM 35.6980 -113.2380 254° West 340 391 20,000 -441 Descending FlightAware ADS-B
Fri 11:33:47 AM 35.6840 -113.2940 253° West 338 389 20,000  Level FlightAware ADS-B
Fri 11:34:23 AM 35.6680 -113.3630 254° West 337 388 20,000  Level FlightAware ADS-B
Fri 11:34:59 AM 35.6530 -113.4280 254° West 336 387 20,000  Level FlightAware ADS-B
Fri 11:35:35 AM 35.6370 -113.4940 253° West 335 386 20,000  Level FlightAware ADS-B
Fri 11:36:09 AM 35.6280 -113.5570 260° West 337 388 20,000 -400 Level FlightAware ADS-B
Fri 11:36:35 AM 35.6340 -113.6070 278° West 336 387 19,600 -1,000 Descending FlightAware ADS-B
Fri 11:37:09 AM 35.6430 -113.6710 280° West 337 388 19,000 -1,000 Descending FlightAware ADS-B
Fri 11:37:47 AM 35.6530 -113.7420 280° West 332 382 18,400 -1,014 Descending FlightAware ADS-B
Fri 11:38:20 AM 35.6620 -113.8030 280° West 329 379 17,800 -1,000 Descending FlightAware ADS-B
Fri 11:38:59 AM 35.6710 -113.8700 279° West 325 374 17,200 -1,014 Descending FlightAware ADS-B
Fri 11:39:31 AM 35.6790 -113.9290 279° West 323 372 16,600 -1,059 Descending FlightAware ADS-B
Fri 11:40:07 AM 35.6890 -113.9980 280° West 318 366 16,000 -943 Descending FlightAware ADS-B
Fri 11:40:41 AM 35.6970 -114.0570 279° West 316 364 15,500 -1,015 Descending FlightAware ADS-B
Fri 11:41:12 AM 35.7050 -114.1110 280° West 312 359 14,900 -658 Descending FlightAware ADS-B
Fri 11:41:54 AM 35.7130 -114.1750 279° West 309 356 14,700 -156 Descending FlightAware ADS-B
Fri 11:42:29 AM 35.7200 -114.2260 280° West 309 356 14,700 -1,636 Level FlightAware ADS-B
Fri 11:43:00 AM 35.7310 -114.2980 281° West 302 348 12,900 -2,294 Descending FlightAware ADS-B
Fri 11:43:37 AM 35.7400 -114.3590 280° West 292 336 12,100 -1,038 Descending FlightAware ADS-B
Fri 11:43:52 AM 35.7510 -114.3800 303° West 287 330 12,000 -214 Descending FlightAware ADS-B
Fri 11:44:05 AM 35.7640 -114.3920 323° Northwest 288 331 12,000  Level FlightAware ADS-B
Fri 11:44:38 AM 35.8060 -114.4130 338° Northwest 288 331 12,000  Level FlightAware ADS-B
Fri 11:45:13 AM 35.8490 -114.4330 339° North 288 331 12,000 -514 Level FlightAware ADS-B
Fri 11:45:48 AM 35.8940 -114.4540 339° North 280 322 11,400 -1,059 Descending FlightAware ADS-B
Fri 11:46:04 AM 35.9100 -114.4660 329° Northwest 274 315 11,100 -727 Descending FlightAware ADS-B
Fri 11:46:21 AM 35.9250 -114.4850 314° West 261 300 11,000 -857 Descending FlightAware ADS-B
Fri 11:46:53 AM 35.9470 -114.5230 306° West 254 292 10,400 -1,750 Descending FlightAware ADS-B
Fri 11:47:09 AM 35.9600 -114.5420 310° West 272 313 9,600 -2,667 Descending FlightAware ADS-B
Fri 11:47:29 AM 35.9750 -114.5670 307° West 286 329 8,800 -1,950 Descending FlightAware ADS-B
Fri 11:47:49 AM 35.9920 -114.5940 308° West 287 330 8,300 -980 Descending FlightAware ADS-B
Fri 11:48:18 AM 36.0130 -114.6280 307° West 273 314 8,000 -290 Descending FlightAware ADS-B
Fri 11:48:51 AM 36.0350 -114.6660 306° West 265 305 8,000 -200 Level FlightAware ADS-B
Fri 11:50:18 AM 36.0730 -114.7750 293° West 251 289 7,600 -393 Descending FlightAware ADS-B
Fri 11:50:38 AM 36.0730 -114.8060 270° West 247 284 7,300 -947 Descending FlightAware ADS-B
Fri 11:50:56 AM 36.0730 -114.8320 270° West 246 283 7,000 -1,000 Descending FlightAware ADS-B
Fri 11:51:20 AM 36.0740 -114.8640 272° West 239 275 6,600 -1,385 Descending FlightAware ADS-B
Fri 11:51:48 AM 36.0740 -114.9030 270° West 245 282 5,800 -1,650 Descending FlightAware ADS-B
Fri 11:52:00 AM 36.0740 -114.9190 270° West 235 270 5,500 -1,091 Descending FlightAware ADS-B
Fri 11:52:21 AM 36.0740 -114.9450 270° West 213 245 5,200 -878 Descending FlightAware ADS-B
Fri 11:52:41 AM 36.0740 -114.9700 270° West 197 227 4,900 -1,174 Descending FlightAware ADS-B
Fri 11:53:07 AM 36.0740 -114.9980 270° West 194 223 4,300 -1,435 Descending FlightAware ADS-B
Fri 11:53:27 AM 36.0740 -115.0190 270° West 182 209 3,800 -1,421 Descending FlightAware ADS-B
Fri 11:53:45 AM 36.0740 -115.0370 270° West 175 201 3,400 -1,167 Descending FlightAware ADS-B
Fri 11:54:03 AM 36.0740 -115.0560 270° West 172 198 3,100 -818 Descending FlightAware ADS-B
Fri 11:54:29 AM 36.0740 -115.0790 270° West 169 194 2,800 -750 Descending FlightAware ADS-B
Fri 11:54:51 AM 36.0740 -115.0970 270° West 168 193 2,500 -947 Descending FlightAware ADS-B
Fri 11:55:07 AM 36.0740 -115.1140 270° West 166 191 2,200 -409 Descending FlightAware ADS-B
Fri 11:55:35 AM 36.0740 -115.1370 270° West 166 191 2,200  Level FlightAware ADS-B
Fri 12:03:00 PM 36.0667 -115.1500 270° West  Level FlightAware Approximate

Login

Don't have an account? Register now (free) for customized features, flight alerts, and more!